createdAt,value
2023-08-03T00:01:15.001Z,22.56
2023-08-03T00:03:16.674Z,22.55
2023-08-03T00:05:20.704Z,22.54
2023-08-03T00:07:22.793Z,22.53
2023-08-03T00:09:24.388Z,22.53
2023-08-03T00:11:25.840Z,22.52
2023-08-03T00:13:27.387Z,22.52
2023-08-03T00:15:28.901Z,22.52
2023-08-03T00:17:30.469Z,22.52
2023-08-03T00:19:31.975Z,22.51
2023-08-03T00:21:33.515Z,22.51
2023-08-03T00:23:35.011Z,22.51
2023-08-03T00:25:36.542Z,22.50
2023-08-03T00:27:37.981Z,22.49
2023-08-03T00:29:39.407Z,22.48
2023-08-03T00:31:41.010Z,22.47
2023-08-03T00:33:42.542Z,22.47
2023-08-03T00:35:44.043Z,22.46
2023-08-03T00:37:45.519Z,22.46
2023-08-03T00:39:47.119Z,22.46
2023-08-03T00:41:48.854Z,22.45
2023-08-03T00:43:50.438Z,22.43
2023-08-03T00:45:52.344Z,22.43
2023-08-03T00:47:53.863Z,22.42
2023-08-03T00:49:55.352Z,22.42
2023-08-03T00:51:57.175Z,22.41
2023-08-03T00:53:58.705Z,22.42
2023-08-03T00:56:00.349Z,22.41
2023-08-03T00:58:01.857Z,22.40
2023-08-03T01:00:03.666Z,22.39
2023-08-03T01:02:05.484Z,22.38
2023-08-03T01:04:07.018Z,22.37
2023-08-03T01:06:08.557Z,22.37
2023-08-03T01:08:10.001Z,22.37
2023-08-03T01:10:11.658Z,22.37
2023-08-03T01:12:13.199Z,22.35
2023-08-03T01:14:14.935Z,22.34
2023-08-03T01:16:16.871Z,22.36
2023-08-03T01:18:18.509Z,22.35
2023-08-03T01:20:21.384Z,22.32
2023-08-03T01:22:23.381Z,22.33
2023-08-03T01:24:24.993Z,22.31
2023-08-03T01:26:26.695Z,22.31
2023-08-03T01:28:28.219Z,22.30
2023-08-03T01:30:30.000Z,22.30
2023-08-03T01:32:32.452Z,22.29
2023-08-03T01:34:34.085Z,22.30
2023-08-03T01:36:35.742Z,22.28
2023-08-03T01:38:37.217Z,22.27
2023-08-03T01:40:38.996Z,22.26
2023-08-03T01:42:40.948Z,22.26
2023-08-03T01:44:42.730Z,22.26
2023-08-03T01:46:44.164Z,22.27
2023-08-03T01:48:45.620Z,22.26
2023-08-03T01:50:47.091Z,22.26
2023-08-03T01:52:49.482Z,22.25
2023-08-03T01:54:51.465Z,22.25
2023-08-03T01:56:55.958Z,22.24
2023-08-03T01:58:58.243Z,22.25
2023-08-03T02:00:59.847Z,22.25
2023-08-03T02:03:01.428Z,22.10
2023-08-03T02:05:03.674Z,22.24
2023-08-03T02:07:13.325Z,22.24
2023-08-03T02:09:14.857Z,22.23
2023-08-03T02:11:16.347Z,22.23
2023-08-03T02:13:17.828Z,22.22
2023-08-03T02:15:19.343Z,22.22
2023-08-03T02:17:21.922Z,22.21
2023-08-03T02:19:23.430Z,22.20
2023-08-03T02:23:31.611Z,22.20
2023-08-03T02:25:33.057Z,22.20
2023-08-03T02:27:34.691Z,22.20
2023-08-03T02:29:36.389Z,22.20
2023-08-03T02:31:37.852Z,22.19
2023-08-03T02:33:39.404Z,22.19
2023-08-03T02:35:40.910Z,22.19
2023-08-03T02:37:42.375Z,22.20
2023-08-03T02:39:43.862Z,22.19
2023-08-03T02:41:45.654Z,22.18
2023-08-03T02:43:47.508Z,22.17
2023-08-03T02:45:49.045Z,22.17
2023-08-03T02:47:50.582Z,22.17
2023-08-03T02:49:52.037Z,22.16
2023-08-03T02:51:53.546Z,22.15
2023-08-03T02:53:55.048Z,22.15
2023-08-03T02:55:56.494Z,22.15
2023-08-03T02:57:58.024Z,22.14
2023-08-03T02:59:59.575Z,22.13
2023-08-03T03:02:01.242Z,22.12
2023-08-03T03:04:02.801Z,22.13
2023-08-03T03:06:04.610Z,22.13
2023-08-03T03:08:06.208Z,22.11
2023-08-03T03:10:07.932Z,22.11
2023-08-03T03:12:09.694Z,22.11
2023-08-03T03:14:11.444Z,22.11
2023-08-03T03:18:19.238Z,22.10
2023-08-03T03:20:20.680Z,22.10
2023-08-03T03:22:22.192Z,22.10
2023-08-03T03:24:23.831Z,22.10
2023-08-03T03:26:25.405Z,22.10
2023-08-03T03:28:26.864Z,22.10
2023-08-03T03:30:28.348Z,22.09
2023-08-03T03:32:29.967Z,22.09
2023-08-03T03:34:31.580Z,22.07
2023-08-03T03:36:33.126Z,22.07
2023-08-03T03:40:41.008Z,22.07
2023-08-03T03:42:42.481Z,22.07
2023-08-03T03:44:43.978Z,22.07
2023-08-03T03:46:45.519Z,22.06
2023-08-03T03:48:46.955Z,22.06
2023-08-03T03:50:48.398Z,22.06
2023-08-03T03:52:50.031Z,22.05
2023-08-03T03:54:51.656Z,22.05
2023-08-03T03:56:56.380Z,22.05
2023-08-03T03:58:58.084Z,22.06
2023-08-03T04:00:59.730Z,22.05
2023-08-03T04:03:01.285Z,22.04
2023-08-03T04:05:02.911Z,22.03
2023-08-03T04:07:04.586Z,22.03
2023-08-03T04:09:06.058Z,22.02
2023-08-03T04:11:07.667Z,22.02
2023-08-03T04:13:09.199Z,22.02
2023-08-03T04:15:10.790Z,22.01
2023-08-03T04:17:12.386Z,22.01
2023-08-03T04:19:14.133Z,21.99
2023-08-03T04:21:15.963Z,21.99
2023-08-03T04:23:17.420Z,21.98
2023-08-03T04:25:19.176Z,21.97
2023-08-03T04:27:20.659Z,21.97
2023-08-03T04:29:22.392Z,21.96
2023-08-03T04:31:23.933Z,21.96
2023-08-03T04:33:25.368Z,21.83
2023-08-03T04:35:26.832Z,21.95
2023-08-03T04:37:29.549Z,21.95
2023-08-03T04:39:31.245Z,21.95
2023-08-03T04:41:32.988Z,21.95
2023-08-03T04:43:34.412Z,21.94
2023-08-03T04:45:36.340Z,21.93
2023-08-03T04:47:39.219Z,21.93
2023-08-03T04:49:40.750Z,21.94
2023-08-03T04:51:42.558Z,21.94
2023-08-03T04:53:45.707Z,21.93
2023-08-03T04:55:47.547Z,21.94
2023-08-03T04:57:49.065Z,21.93
2023-08-03T04:59:50.644Z,21.93
2023-08-03T05:04:01.153Z,21.91
2023-08-03T05:06:04.940Z,21.92
2023-08-03T05:08:07.828Z,21.91
2023-08-03T05:10:10.345Z,21.90
2023-08-03T05:12:11.820Z,21.89
2023-08-03T05:14:13.254Z,21.88
2023-08-03T05:16:14.839Z,21.88
2023-08-03T05:18:16.376Z,21.87
2023-08-03T05:20:18.018Z,21.87
2023-08-03T05:22:19.584Z,21.87
2023-08-03T05:24:21.120Z,21.87
2023-08-03T05:26:22.587Z,21.86
2023-08-03T05:28:24.721Z,21.86
2023-08-03T05:30:26.277Z,21.86
2023-08-03T05:32:27.825Z,21.86
2023-08-03T05:34:30.743Z,21.85
2023-08-03T05:36:32.179Z,21.85
2023-08-03T05:38:33.661Z,21.85
2023-08-03T05:40:35.355Z,21.85
2023-08-03T05:42:38.965Z,21.84
2023-08-03T05:44:40.578Z,21.85
2023-08-03T05:46:42.146Z,21.85
2023-08-03T05:48:43.713Z,21.84
2023-08-03T05:50:49.381Z,21.85
2023-08-03T05:52:51.678Z,21.84
2023-08-03T05:54:54.564Z,21.84
2023-08-03T05:56:56.077Z,21.83
2023-08-03T05:58:57.578Z,21.83
2023-08-03T06:00:59.062Z,21.82
2023-08-03T06:03:04.145Z,21.82
2023-08-03T06:05:07.513Z,21.83
2023-08-03T06:07:09.559Z,21.83
2023-08-03T06:09:12.632Z,21.82
2023-08-03T06:11:21.229Z,21.83
2023-08-03T06:13:28.519Z,21.81
2023-08-03T06:15:30.325Z,21.82
2023-08-03T06:17:31.841Z,21.81
2023-08-03T06:19:33.408Z,21.81
2023-08-03T06:21:34.920Z,21.81
2023-08-03T06:23:40.347Z,21.81
2023-08-03T06:25:42.122Z,21.81
2023-08-03T06:27:43.694Z,21.80
2023-08-03T06:29:45.293Z,21.80
2023-08-03T06:31:47.870Z,21.79
2023-08-03T06:33:49.657Z,21.79
2023-08-03T06:35:54.318Z,21.79
2023-08-03T06:37:56.270Z,21.79
2023-08-03T06:39:58.177Z,21.79
2023-08-03T06:42:03.924Z,21.79
2023-08-03T06:44:05.851Z,21.79
2023-08-03T06:46:07.443Z,21.79
2023-08-03T06:48:09.561Z,21.79
2023-08-03T06:50:11.331Z,21.80
2023-08-03T06:52:12.896Z,21.79
2023-08-03T06:54:14.420Z,21.80
2023-08-03T06:56:16.053Z,21.80
2023-08-03T06:58:21.106Z,21.79
2023-08-03T07:00:24.310Z,21.79
2023-08-03T07:02:26.338Z,21.79
2023-08-03T07:04:27.896Z,21.80
2023-08-03T07:06:29.374Z,21.80
2023-08-03T07:08:30.927Z,21.79
2023-08-03T07:10:33.319Z,21.80
2023-08-03T07:12:35.366Z,21.80
2023-08-03T07:14:36.929Z,21.80
2023-08-03T07:16:39.454Z,21.80
2023-08-03T07:18:41.008Z,21.79
2023-08-03T07:20:43.240Z,21.79
2023-08-03T07:22:46.692Z,21.79
2023-08-03T07:24:48.570Z,21.78
2023-08-03T07:26:50.726Z,21.77
2023-08-03T07:28:52.228Z,21.77
2023-08-03T07:30:53.828Z,21.77
2023-08-03T07:32:55.608Z,21.77
2023-08-03T07:34:57.136Z,21.78
2023-08-03T07:36:58.805Z,21.78
2023-08-03T07:39:00.438Z,21.77
2023-08-03T07:41:06.395Z,21.77
2023-08-03T07:43:08.217Z,21.78
2023-08-03T07:45:09.929Z,21.77
2023-08-03T07:47:11.398Z,21.77
2023-08-03T07:49:13.075Z,21.76
2023-08-03T07:51:17.052Z,21.76
2023-08-03T07:53:20.392Z,21.76
2023-08-03T07:55:21.943Z,21.77
2023-08-03T07:57:23.446Z,21.76
2023-08-03T07:59:26.191Z,21.77
2023-08-03T08:01:27.994Z,21.76
2023-08-03T08:03:29.556Z,21.77
2023-08-03T08:05:31.240Z,21.78
2023-08-03T08:07:34.036Z,21.78
2023-08-03T08:09:36.247Z,21.78
2023-08-03T08:11:37.802Z,21.77
2023-08-03T08:13:39.323Z,21.78
2023-08-03T08:15:41.134Z,21.77
2023-08-03T08:17:42.663Z,21.78
2023-08-03T08:19:44.892Z,21.77
2023-08-03T08:21:47.999Z,21.77
2023-08-03T08:23:51.512Z,21.77
2023-08-03T08:25:53.201Z,21.77
2023-08-03T08:27:54.827Z,21.77
2023-08-03T08:29:59.522Z,21.77
2023-08-03T08:32:01.391Z,21.77
2023-08-03T08:34:03.216Z,21.78
2023-08-03T08:36:05.246Z,21.77
2023-08-03T08:38:10.680Z,21.77
2023-08-03T08:40:15.181Z,21.77
2023-08-03T08:42:17.185Z,21.76
2023-08-03T08:44:18.806Z,21.76
2023-08-03T08:46:20.442Z,21.76
2023-08-03T08:50:28.847Z,21.76
2023-08-03T08:57:15.492Z,21.76
2023-08-03T09:01:21.455Z,21.77
2023-08-03T09:03:23.351Z,21.77
2023-08-03T09:07:30.191Z,21.77
2023-08-03T09:09:36.263Z,21.54
2023-08-03T09:11:41.823Z,21.77
2023-08-03T09:13:43.504Z,21.77
2023-08-03T09:15:45.019Z,21.77
2023-08-03T09:17:48.331Z,21.77
2023-08-03T09:28:39.325Z,21.78
2023-08-03T09:32:56.127Z,21.78
2023-08-03T09:34:57.842Z,21.78
2023-08-03T09:39:31.061Z,21.79
2023-08-03T09:41:57.910Z,21.64
2023-08-03T09:43:56.258Z,21.80
2023-08-03T09:45:58.742Z,21.80
2023-08-03T09:48:03.004Z,21.81
2023-08-03T09:50:05.065Z,21.82
2023-08-03T09:52:07.476Z,21.83
2023-08-03T09:54:20.109Z,21.83
2023-08-03T09:56:25.721Z,21.84
2023-08-03T09:58:38.626Z,21.85
2023-08-03T10:00:46.715Z,21.86
2023-08-03T10:02:52.416Z,21.86
2023-08-03T10:04:56.859Z,21.87
2023-08-03T10:07:02.379Z,21.88
2023-08-03T10:09:05.371Z,21.89
2023-08-03T10:11:09.972Z,21.90
2023-08-03T10:13:11.496Z,21.90
2023-08-03T10:15:13.279Z,21.90
2023-08-03T10:17:15.036Z,21.92
2023-08-03T10:19:17.351Z,21.92
2023-08-03T10:21:18.895Z,21.93
2023-08-03T10:23:21.079Z,21.95
2023-08-03T10:25:22.655Z,21.95
2023-08-03T10:27:25.872Z,21.96
2023-08-03T10:29:46.605Z,21.96
2023-08-03T10:31:55.149Z,21.97
2023-08-03T10:33:57.041Z,21.98
2023-08-03T10:35:58.622Z,21.98
2023-08-03T10:38:01.151Z,21.99
2023-08-03T10:40:04.220Z,22.00
2023-08-03T10:46:52.360Z,22.02
2023-08-03T10:48:54.344Z,22.01
2023-08-03T10:50:59.938Z,22.03
2023-08-03T10:53:01.619Z,22.03
2023-08-03T10:59:40.997Z,22.05
2023-08-03T11:01:42.516Z,22.05
2023-08-03T11:03:44.436Z,22.04
2023-08-03T11:05:54.029Z,22.05
2023-08-03T11:07:55.781Z,22.05
2023-08-03T11:09:57.484Z,22.06
2023-08-03T11:11:59.050Z,22.06
2023-08-03T11:14:00.795Z,22.05
2023-08-03T11:16:02.441Z,22.06
2023-08-03T11:18:14.163Z,22.06
2023-08-03T11:20:15.999Z,22.07
2023-08-03T11:22:17.750Z,22.07
2023-08-03T11:24:19.239Z,22.06
2023-08-03T11:26:21.087Z,22.06
2023-08-03T11:28:22.536Z,22.06
2023-08-03T11:30:24.088Z,22.07
2023-08-03T11:32:26.794Z,22.08
2023-08-03T11:34:28.578Z,22.10
2023-08-03T11:36:30.191Z,22.11
2023-08-03T11:38:31.745Z,22.12
2023-08-03T11:40:33.411Z,22.12
2023-08-03T11:42:37.206Z,22.13
2023-08-03T11:44:55.169Z,22.15
2023-08-03T11:47:04.839Z,22.16
2023-08-03T11:49:06.711Z,22.17
2023-08-03T11:51:08.498Z,22.18
2023-08-03T11:53:19.220Z,22.18
2023-08-03T11:55:28.564Z,22.20
2023-08-03T11:57:53.132Z,22.20
2023-08-03T11:59:56.423Z,22.22
2023-08-03T12:02:01.214Z,22.22
2023-08-03T12:06:49.790Z,22.24
2023-08-03T12:08:43.138Z,22.26
2023-08-03T12:11:01.144Z,22.27
2023-08-03T12:13:03.013Z,22.30
2023-08-03T12:15:04.918Z,22.29
2023-08-03T12:17:11.310Z,22.31
2023-08-03T12:19:13.543Z,22.31
2023-08-03T12:21:15.255Z,22.31
2023-08-03T12:23:17.325Z,22.32
2023-08-03T12:25:22.645Z,22.32
2023-08-03T12:27:24.605Z,22.33
2023-08-03T12:29:26.205Z,22.36
2023-08-03T12:31:27.705Z,22.38
2023-08-03T12:33:31.177Z,22.40
2023-08-03T12:35:32.989Z,22.43
2023-08-03T12:37:34.476Z,22.45
2023-08-03T12:39:35.970Z,22.47
2023-08-03T12:41:37.480Z,22.49
2023-08-03T12:43:39.050Z,22.50
2023-08-03T12:45:40.747Z,22.52
2023-08-03T12:49:54.379Z,22.54
2023-08-03T12:51:55.930Z,22.55
2023-08-03T12:53:57.470Z,22.56
2023-08-03T12:55:59.032Z,22.58
2023-08-03T12:58:00.618Z,22.59
2023-08-03T13:00:02.181Z,22.60
2023-08-03T13:02:04.158Z,22.63
2023-08-03T13:04:05.890Z,22.65
2023-08-03T13:06:07.384Z,22.69
2023-08-03T13:08:09.138Z,22.70
2023-08-03T13:10:10.937Z,22.71
2023-08-03T13:12:15.733Z,22.71
2023-08-03T13:14:17.353Z,22.73
2023-08-03T13:16:20.408Z,22.73
2023-08-03T13:18:22.155Z,22.75
2023-08-03T13:20:26.278Z,22.78
2023-08-03T13:22:27.861Z,22.78
2023-08-03T13:24:29.411Z,22.80
2023-08-03T13:26:31.089Z,22.81
2023-08-03T13:28:32.575Z,22.82
2023-08-03T13:30:34.534Z,22.83
2023-08-03T13:32:36.680Z,22.83
2023-08-03T13:34:38.437Z,22.86
2023-08-03T13:36:39.923Z,22.87
2023-08-03T13:38:41.432Z,22.88
2023-08-03T13:40:43.010Z,22.89
2023-08-03T13:42:44.563Z,22.90
2023-08-03T13:44:46.044Z,22.90
2023-08-03T13:46:47.941Z,22.93
2023-08-03T13:48:49.782Z,22.93
2023-08-03T13:50:51.744Z,22.96
2023-08-03T13:52:53.252Z,22.97
2023-08-03T13:54:54.837Z,22.98
2023-08-03T13:59:00.818Z,23.00
2023-08-03T14:01:14.385Z,23.01
2023-08-03T14:03:16.817Z,23.03
2023-08-03T14:05:42.634Z,23.04
2023-08-03T14:09:45.267Z,23.04
2023-08-03T14:22:29.769Z,23.05
2023-08-03T14:24:31.473Z,23.04
2023-08-03T14:26:33.949Z,23.06
2023-08-03T14:30:40.133Z,23.05
2023-08-03T14:32:41.933Z,23.05
2023-08-03T14:36:48.360Z,23.04
2023-08-03T14:38:49.820Z,23.04
2023-08-03T14:40:51.289Z,23.02
2023-08-03T14:44:57.900Z,23.02
2023-08-03T14:47:01.189Z,23.01
2023-08-03T14:49:11.570Z,23.00
2023-08-03T14:53:19.774Z,23.00
2023-08-03T14:55:21.450Z,22.99
2023-08-03T14:57:23.127Z,22.98
2023-08-03T14:59:24.715Z,22.98
2023-08-03T15:01:28.780Z,22.98
2023-08-03T15:03:30.436Z,22.98
2023-08-03T15:05:32.063Z,23.00
2023-08-03T15:07:33.586Z,22.99
2023-08-03T15:09:35.296Z,22.99
2023-08-03T15:11:36.844Z,22.99
2023-08-03T15:13:38.705Z,22.99
2023-08-03T15:15:40.323Z,22.99
2023-08-03T15:17:42.016Z,22.99
2023-08-03T15:19:43.897Z,23.00
2023-08-03T15:21:46.052Z,23.00
2023-08-03T15:23:50.832Z,23.00
2023-08-03T15:26:01.493Z,23.00
2023-08-03T15:34:25.086Z,23.01
2023-08-03T15:36:35.110Z,23.00
2023-08-03T15:38:39.509Z,22.99
2023-08-03T15:40:58.360Z,23.00
2023-08-03T15:43:04.408Z,22.98
2023-08-03T15:45:09.222Z,23.00
2023-08-03T15:47:35.956Z,23.00
2023-08-03T15:49:38.161Z,22.99
2023-08-03T15:51:46.011Z,22.99
2023-08-03T15:53:49.972Z,22.98
2023-08-03T15:58:01.515Z,22.96
2023-08-03T16:00:03.104Z,22.98
2023-08-03T16:02:04.681Z,22.96
2023-08-03T16:04:06.241Z,22.94
2023-08-03T16:06:14.040Z,22.94
2023-08-03T16:08:15.766Z,22.94
2023-08-03T16:10:17.420Z,22.93
2023-08-03T16:12:19.012Z,22.93
2023-08-03T16:14:20.480Z,22.91
2023-08-03T16:16:22.487Z,22.92
2023-08-03T16:18:24.039Z,22.91
2023-08-03T16:20:25.942Z,22.91
2023-08-03T16:22:28.129Z,22.89
2023-08-03T16:24:29.645Z,22.89
2023-08-03T16:26:31.433Z,22.88
2023-08-03T16:28:33.039Z,22.88
2023-08-03T16:30:34.603Z,22.88
2023-08-03T16:32:36.474Z,22.87
2023-08-03T16:34:55.682Z,22.86
2023-08-03T16:36:59.131Z,22.85
2023-08-03T16:39:00.672Z,22.85
2023-08-03T16:41:03.998Z,22.84
2023-08-03T16:43:05.549Z,22.85
2023-08-03T16:45:07.483Z,22.83
2023-08-03T16:47:09.000Z,22.82
2023-08-03T16:49:10.734Z,22.81
2023-08-03T16:51:12.331Z,22.81
2023-08-03T16:53:13.882Z,22.80
2023-08-03T16:55:15.437Z,22.80
2023-08-03T16:57:19.933Z,22.79
2023-08-03T16:59:21.548Z,22.79
2023-08-03T17:01:23.095Z,22.78
2023-08-03T17:03:25.601Z,22.78
2023-08-03T17:05:27.937Z,22.77
2023-08-03T17:07:29.531Z,22.77
2023-08-03T17:09:31.723Z,22.76
2023-08-03T17:11:33.257Z,22.76
2023-08-03T17:13:34.810Z,22.76
2023-08-03T17:15:36.558Z,22.75
2023-08-03T17:17:38.132Z,22.75
2023-08-03T17:19:40.118Z,22.75
2023-08-03T17:21:41.677Z,22.74
2023-08-03T17:23:43.329Z,22.74
2023-08-03T17:25:44.866Z,22.73
2023-08-03T17:27:46.440Z,22.72
2023-08-03T17:29:48.009Z,22.72
2023-08-03T17:31:49.483Z,22.71
2023-08-03T17:33:50.987Z,22.71
2023-08-03T17:35:52.472Z,22.70
2023-08-03T17:37:54.027Z,22.70
2023-08-03T17:39:55.736Z,22.69
2023-08-03T17:41:57.375Z,22.68
2023-08-03T17:43:59.205Z,22.68
2023-08-03T17:46:07.815Z,22.69
2023-08-03T17:48:09.692Z,22.68
2023-08-03T17:50:11.215Z,22.67
2023-08-03T17:52:12.856Z,22.68
2023-08-03T17:54:14.349Z,22.64
2023-08-03T17:56:19.185Z,22.67
2023-08-03T17:58:20.663Z,22.67
2023-08-03T18:00:22.196Z,22.66
2023-08-03T18:02:24.031Z,22.65
2023-08-03T18:04:32.782Z,22.65
2023-08-03T18:06:34.529Z,22.66
2023-08-03T18:08:36.431Z,22.66
2023-08-03T18:10:37.948Z,22.65
2023-08-03T18:12:39.549Z,22.65
2023-08-03T18:14:41.080Z,22.65
2023-08-03T18:16:42.873Z,22.65
2023-08-03T18:18:46.703Z,22.63
2023-08-03T18:20:48.308Z,22.63
2023-08-03T18:22:49.801Z,22.63
2023-08-03T18:24:51.359Z,22.63
2023-08-03T18:26:52.955Z,22.62
2023-08-03T18:28:55.108Z,22.62
2023-08-03T18:31:00.385Z,22.62
2023-08-03T18:33:02.020Z,22.62
2023-08-03T18:35:03.762Z,22.61
2023-08-03T18:37:05.547Z,22.62
2023-08-03T18:39:07.366Z,22.60
2023-08-03T18:41:14.466Z,22.59
2023-08-03T18:43:16.215Z,22.58
2023-08-03T18:45:17.750Z,22.59
2023-08-03T18:47:19.518Z,22.59
2023-08-03T18:49:21.181Z,22.58
2023-08-03T18:51:23.052Z,22.57
2023-08-03T18:53:24.684Z,22.56
2023-08-03T18:55:26.181Z,22.56
2023-08-03T18:57:27.672Z,22.56
2023-08-03T18:59:29.182Z,22.55
2023-08-03T19:01:32.567Z,22.54
2023-08-03T19:03:34.253Z,22.53
2023-08-03T19:05:37.678Z,22.53
2023-08-03T19:07:39.185Z,22.52
2023-08-03T19:09:40.795Z,22.53
2023-08-03T19:11:42.416Z,22.53
2023-08-03T19:13:44.929Z,22.51
2023-08-03T19:15:46.569Z,22.51
2023-08-03T19:17:48.086Z,22.50
2023-08-03T19:19:49.802Z,22.49
2023-08-03T19:21:51.395Z,22.49
2023-08-03T19:23:52.873Z,22.49
2023-08-03T19:25:57.870Z,22.47
2023-08-03T19:28:03.317Z,22.47
2023-08-03T19:30:05.634Z,22.47
2023-08-03T19:32:07.279Z,22.46
2023-08-03T19:34:08.881Z,22.46
2023-08-03T19:36:10.516Z,22.45
2023-08-03T19:38:12.635Z,22.45
2023-08-03T19:40:14.305Z,22.44
2023-08-03T19:42:16.509Z,22.44
2023-08-03T19:44:18.227Z,22.43
2023-08-03T19:46:19.868Z,22.44
2023-08-03T19:48:21.442Z,22.43
2023-08-03T19:56:53.800Z,22.41
2023-08-03T20:02:09.616Z,22.41
2023-08-03T20:03:26.223Z,22.40
2023-08-03T20:09:38.603Z,22.39
2023-08-03T20:11:40.126Z,22.39
2023-08-03T20:17:51.024Z,22.37
2023-08-03T20:19:53.273Z,22.37
2023-08-03T20:21:54.796Z,22.37
2023-08-03T20:23:57.645Z,22.36
2023-08-03T20:26:03.096Z,22.36
2023-08-03T20:28:11.450Z,22.35
2023-08-03T20:30:13.930Z,22.36
2023-08-03T20:32:16.062Z,22.35
2023-08-03T20:34:17.682Z,22.35
2023-08-03T20:36:19.302Z,22.35
2023-08-03T20:38:33.763Z,22.34
2023-08-03T20:42:43.021Z,22.33
2023-08-03T20:48:53.604Z,22.33
2023-08-03T20:50:58.499Z,22.32
2023-08-03T20:53:00.071Z,22.31
2023-08-03T20:55:01.631Z,22.31
2023-08-03T20:57:03.162Z,22.32
2023-08-03T20:59:04.714Z,22.31
2023-08-03T21:01:06.580Z,22.30
2023-08-03T21:03:11.224Z,22.29
2023-08-03T21:05:22.953Z,22.29
2023-08-03T21:07:25.439Z,22.29
2023-08-03T21:09:27.089Z,22.30
2023-08-03T21:11:28.685Z,22.28
2023-08-03T21:13:31.110Z,22.28
2023-08-03T21:15:34.663Z,22.27
2023-08-03T21:17:36.469Z,22.27
2023-08-03T21:19:38.029Z,22.27
2023-08-03T21:21:39.589Z,22.26
2023-08-03T21:23:41.323Z,22.27
2023-08-03T21:25:42.887Z,22.26
2023-08-03T21:27:47.191Z,22.26
2023-08-03T21:29:48.719Z,22.25
2023-08-03T21:31:50.225Z,22.25
2023-08-03T21:33:51.754Z,22.25
2023-08-03T21:35:53.276Z,22.23
2023-08-03T21:37:57.788Z,22.24
2023-08-03T21:39:59.332Z,22.24
2023-08-03T21:42:02.019Z,22.23
2023-08-03T21:44:05.497Z,22.24
2023-08-03T21:46:07.269Z,22.23
2023-08-03T21:48:08.729Z,22.22
2023-08-03T21:50:11.216Z,22.22
2023-08-03T21:52:12.742Z,22.21
2023-08-03T21:54:14.501Z,22.21
2023-08-03T21:56:19.599Z,22.20
2023-08-03T21:58:21.362Z,22.21
2023-08-03T22:00:23.203Z,22.20
2023-08-03T22:02:26.001Z,22.20
2023-08-03T22:04:27.589Z,22.19
2023-08-03T22:06:29.068Z,22.20
2023-08-03T22:08:30.593Z,22.19
2023-08-03T22:10:32.148Z,22.18
2023-08-03T22:12:33.960Z,22.17
2023-08-03T22:14:35.451Z,22.18
2023-08-03T22:16:36.995Z,22.17
2023-08-03T22:18:38.663Z,22.16
2023-08-03T22:20:40.295Z,22.17
2023-08-03T22:22:41.903Z,22.16
2023-08-03T22:24:43.856Z,22.15
2023-08-03T22:26:45.557Z,22.16
2023-08-03T22:28:47.432Z,22.15
2023-08-03T22:30:48.909Z,22.15
2023-08-03T22:32:50.829Z,22.15
2023-08-03T22:34:54.560Z,22.14
2023-08-03T22:36:56.053Z,22.14
2023-08-03T22:38:57.567Z,22.13
2023-08-03T22:40:59.107Z,22.13
2023-08-03T22:43:02.989Z,22.12
2023-08-03T22:45:04.611Z,22.13
2023-08-03T22:47:06.132Z,22.13
2023-08-03T22:49:07.712Z,22.12
2023-08-03T22:51:13.677Z,22.12
2023-08-03T22:53:15.221Z,22.12
2023-08-03T22:55:16.788Z,22.12
2023-08-03T22:57:18.343Z,22.12
2023-08-03T22:59:19.923Z,22.12
2023-08-03T23:01:22.374Z,22.10
2023-08-03T23:05:33.727Z,22.10
2023-08-03T23:07:36.425Z,22.10
2023-08-03T23:09:38.527Z,22.09
2023-08-03T23:11:40.046Z,22.09
2023-08-03T23:13:41.657Z,22.09
2023-08-03T23:15:43.180Z,22.09
2023-08-03T23:17:45.892Z,22.09
2023-08-03T23:19:47.462Z,22.08
2023-08-03T23:21:49.147Z,22.07
2023-08-03T23:23:51.006Z,22.07
2023-08-03T23:26:02.153Z,22.08
2023-08-03T23:28:03.889Z,22.07
2023-08-03T23:30:05.769Z,22.06
2023-08-03T23:32:07.478Z,22.06
2023-08-03T23:34:09.065Z,22.07
2023-08-03T23:36:10.612Z,22.06
2023-08-03T23:38:12.127Z,22.05
2023-08-03T23:40:13.697Z,22.06
2023-08-03T23:42:15.196Z,22.05
2023-08-03T23:44:16.737Z,22.05
2023-08-03T23:46:18.435Z,22.05
2023-08-03T23:48:20.146Z,22.04
2023-08-03T23:50:21.658Z,22.03
2023-08-03T23:52:23.190Z,22.04
2023-08-03T23:54:24.852Z,22.04
2023-08-03T23:56:26.313Z,22.04
2023-08-03T23:58:27.853Z,22.03
